createdAt,value
2017-10-10T00:00:52.862Z,982.34
2017-10-10T00:02:02.857Z,982.32
2017-10-10T00:03:12.860Z,982.3
2017-10-10T00:04:23.194Z,982.31
2017-10-10T00:05:33.191Z,982.31
2017-10-10T00:06:42.856Z,982.31
2017-10-10T00:07:52.522Z,982.31
2017-10-10T00:09:02.849Z,982.32
2017-10-10T00:10:13.186Z,982.28
2017-10-10T00:11:25.487Z,982.24
2017-10-10T00:12:35.493Z,982.26
2017-10-10T00:13:45.497Z,982.27
2017-10-10T00:14:55.843Z,982.28
2017-10-10T00:16:05.857Z,982.24
2017-10-10T00:17:16.208Z,982.23
2017-10-10T00:18:26.545Z,982.23
2017-10-10T00:19:36.538Z,982.24
2017-10-10T00:20:46.864Z,982.21
2017-10-10T00:21:56.861Z,982.21
2017-10-10T00:23:06.521Z,982.2
2017-10-10T00:24:16.517Z,982.18
2017-10-10T00:25:26.175Z,982.2
2017-10-10T00:26:36.172Z,982.18
2017-10-10T00:27:45.835Z,982.18
2017-10-10T00:28:59.495Z,982.13
2017-10-10T00:30:09.494Z,982.17
2017-10-10T00:31:19.827Z,982.17
2017-10-10T00:32:29.842Z,982.19
2017-10-10T00:33:39.502Z,982.13
2017-10-10T00:34:49.530Z,982.18
2017-10-10T00:35:59.193Z,982.17
2017-10-10T00:37:08.862Z,982.14
2017-10-10T00:38:18.856Z,982.15
2017-10-10T00:39:28.521Z,982.11
2017-10-10T00:40:38.868Z,982.13
2017-10-10T00:41:48.541Z,982.13
2017-10-10T00:42:58.544Z,982.11
2017-10-10T00:44:08.544Z,982.09
2017-10-10T00:45:18.879Z,982.08
2017-10-10T00:46:28.538Z,982.1
2017-10-10T00:47:38.865Z,982.07
2017-10-10T00:48:49.196Z,982.06
2017-10-10T00:49:59.202Z,982.09
2017-10-10T00:51:08.868Z,982.08
2017-10-10T00:52:18.864Z,982.11
2017-10-10T00:53:28.865Z,982.07
2017-10-10T00:54:39.192Z,981.99
2017-10-10T00:55:49.527Z,982
2017-10-10T00:56:59.854Z,981.99
2017-10-10T00:58:10.186Z,981.96
2017-10-10T00:59:20.191Z,981.98
2017-10-10T01:00:30.545Z,982
2017-10-10T01:01:40.914Z,981.98
2017-10-10T01:02:50.906Z,981.99
2017-10-10T01:04:00.919Z,981.98
2017-10-10T01:05:10.579Z,981.95
2017-10-10T01:06:20.570Z,981.92
2017-10-10T01:07:30.603Z,981.97
2017-10-10T01:08:40.940Z,981.91
2017-10-10T01:09:50.935Z,981.9
2017-10-10T01:11:00.931Z,981.9
2017-10-10T01:12:10.598Z,981.87
2017-10-10T01:13:20.921Z,981.8
2017-10-10T01:14:30.937Z,981.81
2017-10-10T01:15:40.938Z,981.82
2017-10-10T01:16:50.941Z,981.79
2017-10-10T01:18:01.287Z,981.79
2017-10-10T01:19:11.619Z,981.78
2017-10-10T01:20:21.950Z,981.8
2017-10-10T01:21:31.945Z,981.76
2017-10-10T01:22:42.273Z,981.74
2017-10-10T01:23:51.932Z,981.72
2017-10-10T01:25:02.267Z,981.71
2017-10-10T01:26:12.640Z,981.7
2017-10-10T01:27:22.972Z,981.67
2017-10-10T01:28:32.970Z,981.71
2017-10-10T01:29:42.972Z,981.69
2017-10-10T01:30:52.997Z,981.69
2017-10-10T01:32:03.334Z,981.68
2017-10-10T01:33:13.332Z,981.63
2017-10-10T01:34:23.668Z,981.63
2017-10-10T01:35:33.672Z,981.64
2017-10-10T01:36:43.995Z,981.61
2017-10-10T01:37:53.668Z,981.61
2017-10-10T01:39:03.669Z,981.58
2017-10-10T01:40:14.010Z,981.59
2017-10-10T01:41:23.667Z,981.57
2017-10-10T01:42:32.991Z,981.59
2017-10-10T01:43:42.652Z,981.58
2017-10-10T01:44:52.991Z,981.52
2017-10-10T01:46:03.330Z,981.49
2017-10-10T01:47:13.329Z,981.5
2017-10-10T01:48:23.324Z,981.44
2017-10-10T01:49:33.319Z,981.46
2017-10-10T01:50:43.648Z,981.47
2017-10-10T01:51:53.312Z,981.43
2017-10-10T01:53:03.658Z,981.4
2017-10-10T01:54:13.987Z,981.41
2017-10-10T01:55:23.980Z,981.39
2017-10-10T01:56:34.307Z,981.39
2017-10-10T01:57:44.308Z,981.38
2017-10-10T01:58:54.307Z,981.37
2017-10-10T02:00:04.303Z,981.38
2017-10-10T02:01:14.297Z,981.36
2017-10-10T02:02:24.295Z,981.37
2017-10-10T02:03:33.957Z,981.37
2017-10-10T02:04:43.945Z,981.34
2017-10-10T02:05:54.267Z,981.35
2017-10-10T02:07:03.603Z,981.36
2017-10-10T02:08:14.097Z,981.32
2017-10-10T02:09:24.097Z,981.3
2017-10-10T02:10:34.123Z,981.29
2017-10-10T02:11:44.458Z,981.26
2017-10-10T02:12:54.450Z,981.27
2017-10-10T02:14:04.113Z,981.22
2017-10-10T02:15:14.110Z,981.24
2017-10-10T02:16:23.778Z,981.16
2017-10-10T02:17:34.120Z,981.16
2017-10-10T02:18:44.457Z,981.21
2017-10-10T02:19:54.798Z,981.19
2017-10-10T02:21:05.133Z,981.18
2017-10-10T02:22:15.466Z,981.17
2017-10-10T02:23:25.790Z,981.15
2017-10-10T02:24:36.119Z,981.13
2017-10-10T02:25:46.167Z,981.11
2017-10-10T02:26:56.558Z,981.11
2017-10-10T02:28:06.551Z,981.11
2017-10-10T02:29:16.877Z,981.11
2017-10-10T02:30:27.216Z,981.1
2017-10-10T02:31:37.214Z,981.12
2017-10-10T02:32:47.546Z,981.09
2017-10-10T02:33:57.553Z,981.12
2017-10-10T02:35:07.898Z,981.13
2017-10-10T02:36:18.243Z,981.1
2017-10-10T02:37:28.574Z,981.08
2017-10-10T02:38:38.569Z,981.15
2017-10-10T02:39:48.226Z,981.11
2017-10-10T02:40:58.223Z,981.09
2017-10-10T02:42:08.561Z,981.08
2017-10-10T02:43:18.886Z,981.05
2017-10-10T02:44:29.226Z,981.07
2017-10-10T02:45:39.561Z,981.04
2017-10-10T02:46:49.894Z,981.04
2017-10-10T02:48:00.224Z,981.04
2017-10-10T02:49:10.571Z,981.07
2017-10-10T02:50:20.902Z,981.07
2017-10-10T02:51:31.254Z,981.05
2017-10-10T02:52:41.588Z,981.03
2017-10-10T02:53:51.589Z,981.01
2017-10-10T02:55:01.933Z,981.06
2017-10-10T02:56:11.940Z,980.99
2017-10-10T02:57:21.943Z,980.98
2017-10-10T02:58:31.941Z,981
2017-10-10T02:59:41.944Z,980.97
2017-10-10T03:00:52.312Z,980.93
2017-10-10T03:02:01.973Z,980.94
2017-10-10T03:03:12.307Z,980.94
2017-10-10T03:04:22.635Z,980.88
2017-10-10T03:05:32.301Z,980.92
2017-10-10T03:06:42.629Z,980.91
2017-10-10T03:07:52.974Z,980.86
2017-10-10T03:09:03.296Z,980.86
2017-10-10T03:10:13.633Z,980.87
2017-10-10T03:11:23.289Z,980.87
2017-10-10T03:12:33.634Z,980.87
2017-10-10T03:13:43.970Z,980.8
2017-10-10T03:14:54.298Z,980.84
2017-10-10T03:16:03.964Z,980.83
2017-10-10T03:17:13.958Z,980.85
2017-10-10T03:18:23.969Z,980.83
2017-10-10T03:19:33.686Z,980.8
2017-10-10T03:20:43.680Z,980.8
2017-10-10T03:21:54.018Z,980.81
2017-10-10T03:23:04.352Z,980.78
2017-10-10T03:24:14.688Z,980.73
2017-10-10T03:25:25.016Z,980.76
2017-10-10T03:26:35.349Z,980.71
2017-10-10T03:27:45.344Z,980.69
2017-10-10T03:28:54.670Z,980.65
2017-10-10T03:30:05.003Z,980.64
2017-10-10T03:31:15.005Z,980.68
2017-10-10T03:32:25.004Z,980.65
2017-10-10T03:33:34.686Z,980.63
2017-10-10T03:34:44.696Z,980.66
2017-10-10T03:35:54.691Z,980.61
2017-10-10T03:37:04.732Z,980.61
2017-10-10T03:38:14.725Z,980.64
2017-10-10T03:39:24.726Z,980.6
2017-10-10T03:40:35.050Z,980.55
2017-10-10T03:41:45.381Z,980.53
2017-10-10T03:42:55.383Z,980.53
2017-10-10T03:44:05.730Z,980.5
2017-10-10T03:45:15.722Z,980.49
2017-10-10T03:46:25.725Z,980.43
2017-10-10T03:47:36.052Z,980.43
2017-10-10T03:48:46.050Z,980.46
2017-10-10T03:49:56.044Z,980.44
2017-10-10T03:51:06.044Z,980.37
2017-10-10T03:52:16.041Z,980.4
2017-10-10T03:53:26.374Z,980.37
2017-10-10T03:54:36.706Z,980.36
2017-10-10T03:55:47.057Z,980.33
2017-10-10T03:56:57.392Z,980.36
2017-10-10T03:58:07.721Z,980.27
2017-10-10T03:59:17.713Z,980.28
2017-10-10T04:00:27.372Z,980.25
2017-10-10T04:01:37.366Z,980.25
2017-10-10T04:02:47.363Z,980.22
2017-10-10T04:03:57.715Z,980.21
2017-10-10T04:05:08.051Z,980.2
2017-10-10T04:06:18.384Z,980.19
2017-10-10T04:07:28.721Z,980.18
2017-10-10T04:08:39.063Z,980.18
2017-10-10T04:09:49.401Z,980.19
2017-10-10T04:10:59.060Z,980.15
2017-10-10T04:12:08.720Z,980.13
2017-10-10T04:13:18.717Z,980.15
2017-10-10T04:14:28.710Z,980.1
2017-10-10T04:15:39.057Z,980.07
2017-10-10T04:16:49.385Z,980.11
2017-10-10T04:17:59.376Z,980.12
2017-10-10T04:19:09.740Z,980.1
2017-10-10T04:20:19.734Z,980.11
2017-10-10T04:21:30.063Z,980.1
2017-10-10T04:22:39.728Z,980.07
2017-10-10T04:23:50.061Z,980.07
2017-10-10T04:25:00.389Z,980.08
2017-10-10T04:26:10.729Z,980.05
2017-10-10T04:27:21.069Z,980.04
2017-10-10T04:28:31.065Z,980.03
2017-10-10T04:29:41.064Z,980.07
2017-10-10T04:30:51.414Z,980.04
2017-10-10T04:32:01.416Z,980.02
2017-10-10T04:33:11.079Z,980.06
2017-10-10T04:34:21.082Z,980.05
2017-10-10T04:35:31.080Z,979.99
2017-10-10T04:36:41.442Z,980.06
2017-10-10T04:37:51.777Z,980.03
2017-10-10T04:39:01.774Z,980.05
2017-10-10T04:40:11.769Z,980.04
2017-10-10T04:41:22.095Z,980.03
2017-10-10T04:42:31.771Z,980.04
2017-10-10T04:43:41.434Z,980.02
2017-10-10T04:44:51.763Z,979.98
2017-10-10T04:46:02.102Z,980
2017-10-10T04:47:12.429Z,980.02
2017-10-10T04:48:22.781Z,980
2017-10-10T04:49:32.464Z,979.98
2017-10-10T04:50:42.478Z,980.01
2017-10-10T04:51:52.474Z,979.98
2017-10-10T04:53:02.138Z,979.96
2017-10-10T04:54:12.484Z,979.98
2017-10-10T04:55:22.820Z,979.92
2017-10-10T04:56:32.815Z,979.89
2017-10-10T04:57:43.144Z,979.89
2017-10-10T04:58:53.132Z,979.92
2017-10-10T05:00:03.136Z,979.89
2017-10-10T05:01:13.130Z,979.87
2017-10-10T05:02:23.133Z,979.9
2017-10-10T05:03:33.469Z,979.9
2017-10-10T05:04:43.462Z,979.86
2017-10-10T05:05:53.795Z,979.87
2017-10-10T05:07:03.794Z,979.82
2017-10-10T05:08:14.130Z,979.83
2017-10-10T05:09:24.127Z,979.84
2017-10-10T05:10:34.127Z,979.82
2017-10-10T05:11:44.121Z,979.79
2017-10-10T05:12:54.131Z,979.78
2017-10-10T05:14:04.468Z,979.74
2017-10-10T05:15:14.575Z,979.75
2017-10-10T05:16:23.903Z,979.77
2017-10-10T05:17:33.905Z,979.78
2017-10-10T05:18:43.912Z,979.79
2017-10-10T05:19:54.256Z,979.75
2017-10-10T05:21:03.930Z,979.79
2017-10-10T05:22:14.277Z,979.75
2017-10-10T05:23:23.948Z,979.75
2017-10-10T05:24:34.287Z,979.74
2017-10-10T05:25:44.284Z,979.73
2017-10-10T05:26:54.279Z,979.74
2017-10-10T05:28:04.611Z,979.72
2017-10-10T05:29:14.623Z,979.69
2017-10-10T05:30:24.300Z,979.65
2017-10-10T05:31:34.632Z,979.67
2017-10-10T05:32:44.634Z,979.66
2017-10-10T05:33:54.973Z,979.7
2017-10-10T05:35:04.992Z,979.67
2017-10-10T05:36:15.337Z,979.66
2017-10-10T05:37:24.998Z,979.68
2017-10-10T05:38:35.358Z,979.7
2017-10-10T05:39:45.692Z,979.64
2017-10-10T05:40:55.688Z,979.72
2017-10-10T05:42:05.722Z,979.7
2017-10-10T05:43:16.064Z,979.71
2017-10-10T05:44:26.028Z,979.73
2017-10-10T05:45:36.361Z,979.71
2017-10-10T05:46:46.032Z,979.72
2017-10-10T05:47:56.033Z,979.7
2017-10-10T05:49:06.032Z,979.66
2017-10-10T05:50:16.032Z,979.69
2017-10-10T05:51:26.357Z,979.66
2017-10-10T05:52:36.022Z,979.69
2017-10-10T05:53:46.022Z,979.69
2017-10-10T05:54:56.363Z,979.67
2017-10-10T05:56:06.039Z,979.69
2017-10-10T05:57:16.048Z,979.66
2017-10-10T05:58:26.381Z,979.65
2017-10-10T05:59:36.378Z,979.67
2017-10-10T06:00:46.709Z,979.64
2017-10-10T06:01:57.042Z,979.63
2017-10-10T06:03:06.713Z,979.65
2017-10-10T06:04:16.715Z,979.63
2017-10-10T06:05:26.725Z,979.62
2017-10-10T06:06:37.056Z,979.58
2017-10-10T06:07:47.065Z,979.59
2017-10-10T06:08:57.062Z,979.57
2017-10-10T06:10:07.402Z,979.55
2017-10-10T06:11:17.739Z,979.55
2017-10-10T06:12:27.072Z,979.52
2017-10-10T06:13:37.079Z,979.51
2017-10-10T06:14:47.100Z,979.5
2017-10-10T06:15:57.103Z,979.48
2017-10-10T06:17:07.100Z,979.51
2017-10-10T06:18:16.768Z,979.48
2017-10-10T06:19:27.107Z,979.49
2017-10-10T06:20:37.122Z,979.48
2017-10-10T06:21:47.116Z,979.46
2017-10-10T06:22:57.125Z,979.47
2017-10-10T06:24:07.468Z,979.43
2017-10-10T06:25:17.202Z,979.43
2017-10-10T06:26:27.219Z,979.43
2017-10-10T06:27:37.555Z,979.41
2017-10-10T06:28:47.225Z,979.38
2017-10-10T06:29:57.224Z,979.4
2017-10-10T06:31:07.405Z,979.39
2017-10-10T06:32:17.757Z,979.33
2017-10-10T06:33:27.772Z,979.35
2017-10-10T06:34:37.765Z,979.29
2017-10-10T06:35:47.753Z,979.32
2017-10-10T06:36:58.042Z,979.31
2017-10-10T06:38:08.043Z,979.26
2017-10-10T06:39:18.370Z,979.27
2017-10-10T06:40:28.692Z,979.25
2017-10-10T06:41:39.012Z,979.24
2017-10-10T06:42:49.001Z,979.18
2017-10-10T06:43:58.662Z,979.2
2017-10-10T06:45:08.652Z,979.15
2017-10-10T06:46:18.988Z,979.12
2017-10-10T06:47:29.319Z,979.13
2017-10-10T06:48:39.648Z,979.12
2017-10-10T06:49:49.975Z,979.08
2017-10-10T06:50:59.630Z,979.06
2017-10-10T06:52:09.626Z,979.06
2017-10-10T06:53:19.614Z,979.03
2017-10-10T06:54:29.606Z,979.07
2017-10-10T06:55:39.606Z,979.1
2017-10-10T06:56:49.598Z,979.04
2017-10-10T06:57:58.918Z,979.09
2017-10-10T06:59:09.253Z,979.04
2017-10-10T07:00:18.916Z,979.06
2017-10-10T07:01:28.907Z,979.06
2017-10-10T07:02:38.899Z,979.05
2017-10-10T07:03:49.222Z,979.03
2017-10-10T07:04:58.879Z,979.03
2017-10-10T07:06:09.220Z,979.03
2017-10-10T07:07:19.206Z,979.02
2017-10-10T07:08:29.544Z,979.04
2017-10-10T07:09:39.544Z,979.04
2017-10-10T07:10:49.871Z,979.03
2017-10-10T07:11:59.541Z,979.06
2017-10-10T07:13:09.530Z,979.02
2017-10-10T07:14:19.532Z,979.03
2017-10-10T07:15:28.916Z,979.01
2017-10-10T07:16:38.890Z,978.95
2017-10-10T07:17:49.213Z,978.95
2017-10-10T07:18:59.548Z,978.91
2017-10-10T07:20:09.537Z,978.89
2017-10-10T07:21:19.527Z,978.87
2017-10-10T07:22:29.621Z,978.88
2017-10-10T07:23:39.948Z,978.87
2017-10-10T07:24:49.954Z,978.87
2017-10-10T07:26:00.278Z,978.86
2017-10-10T07:27:10.270Z,978.82
2017-10-10T07:28:20.595Z,978.83
2017-10-10T07:29:30.585Z,978.79
2017-10-10T07:30:40.242Z,978.79
2017-10-10T07:31:50.238Z,978.8
2017-10-10T07:33:00.250Z,978.8
2017-10-10T07:34:10.573Z,978.79
2017-10-10T07:35:20.230Z,978.8
2017-10-10T07:36:30.554Z,978.78
2017-10-10T07:37:40.892Z,978.79
2017-10-10T07:38:51.219Z,978.73
2017-10-10T07:40:01.207Z,978.7
2017-10-10T07:41:11.208Z,978.71
2017-10-10T07:42:21.212Z,978.72
2017-10-10T07:43:31.205Z,978.67
2017-10-10T07:44:40.864Z,978.66
2017-10-10T07:45:51.190Z,978.66
2017-10-10T07:47:01.201Z,978.65
2017-10-10T07:48:11.200Z,978.64
2017-10-10T07:49:21.533Z,978.66
2017-10-10T07:50:31.858Z,978.62
2017-10-10T07:51:41.848Z,978.61
2017-10-10T07:52:51.846Z,978.59
2017-10-10T07:54:01.502Z,978.59
2017-10-10T07:55:11.504Z,978.6
2017-10-10T07:56:21.829Z,978.58
2017-10-10T07:57:32.154Z,978.58
2017-10-10T07:58:42.481Z,978.61
2017-10-10T07:59:52.474Z,978.55
2017-10-10T08:01:02.818Z,978.57
2017-10-10T08:02:13.143Z,978.58
2017-10-10T08:03:23.176Z,978.55
2017-10-10T08:04:33.507Z,978.52
2017-10-10T08:05:43.510Z,978.53
2017-10-10T08:06:53.841Z,978.55
2017-10-10T08:08:03.832Z,978.54
2017-10-10T08:09:13.825Z,978.53
2017-10-10T08:10:25.921Z,978.55
2017-10-10T08:11:36.247Z,978.52
2017-10-10T08:12:46.575Z,978.51
2017-10-10T08:13:56.900Z,978.52
2017-10-10T08:15:06.896Z,978.46
2017-10-10T08:16:16.892Z,978.45
2017-10-10T08:17:27.215Z,978.46
2017-10-10T08:18:37.553Z,978.44
2017-10-10T08:19:47.877Z,978.37
2017-10-10T08:20:57.541Z,978.38
2017-10-10T08:22:07.535Z,978.39
2017-10-10T08:23:17.862Z,978.42
2017-10-10T08:24:27.523Z,978.37
2017-10-10T08:25:37.854Z,978.33
2017-10-10T08:26:48.176Z,978.34
2017-10-10T08:27:58.502Z,978.3
2017-10-10T08:29:07.831Z,978.31
2017-10-10T08:30:18.171Z,978.28
2017-10-10T08:31:28.507Z,978.25
2017-10-10T08:32:38.499Z,978.25
2017-10-10T08:33:48.510Z,978.24
2017-10-10T08:34:58.501Z,978.24
2017-10-10T08:36:08.167Z,978.17
2017-10-10T08:37:18.503Z,978.18
2017-10-10T08:38:28.832Z,978.14
2017-10-10T08:39:39.159Z,978.14
2017-10-10T08:40:49.155Z,978.09
2017-10-10T08:41:59.155Z,978.09
2017-10-10T08:43:09.155Z,978.08
2017-10-10T08:44:19.480Z,978.08
2017-10-10T08:45:29.477Z,978.07
2017-10-10T08:46:39.481Z,978.08
2017-10-10T08:47:49.814Z,978.03
2017-10-10T08:48:59.835Z,977.97
2017-10-10T08:50:10.161Z,978
2017-10-10T08:51:20.154Z,978.04
2017-10-10T08:52:30.159Z,977.99
2017-10-10T08:53:40.498Z,977.98
2017-10-10T08:54:50.835Z,977.98
2017-10-10T08:56:01.170Z,977.92
2017-10-10T08:57:11.171Z,977.94
2017-10-10T08:58:20.830Z,977.94
2017-10-10T08:59:30.834Z,977.93
2017-10-10T09:00:41.163Z,977.94
2017-10-10T09:01:51.490Z,977.89
2017-10-10T09:03:01.482Z,977.89
2017-10-10T09:04:11.808Z,977.87
2017-10-10T09:05:22.134Z,977.9
2017-10-10T09:06:32.460Z,977.89
2017-10-10T09:07:42.784Z,977.88
2017-10-10T09:08:53.110Z,977.83
2017-10-10T09:10:02.771Z,977.84
2017-10-10T09:11:12.784Z,977.84
2017-10-10T09:12:23.125Z,977.78
2017-10-10T09:13:33.123Z,977.8
2017-10-10T09:14:45.123Z,977.77
2017-10-10T09:15:55.450Z,977.75
2017-10-10T09:17:05.779Z,977.76
2017-10-10T09:18:16.107Z,977.72
2017-10-10T09:19:26.445Z,977.7
2017-10-10T09:20:36.444Z,977.68
2017-10-10T09:21:46.768Z,977.73
2017-10-10T09:22:56.763Z,977.66
2017-10-10T09:24:06.756Z,977.68
2017-10-10T09:25:16.763Z,977.65
2017-10-10T09:26:27.092Z,977.64
2017-10-10T09:27:37.085Z,977.6
2017-10-10T09:28:46.742Z,977.58
2017-10-10T09:29:56.402Z,977.62
2017-10-10T09:31:05.729Z,977.58
2017-10-10T09:32:15.387Z,977.57
2017-10-10T09:33:25.726Z,977.55
2017-10-10T09:34:35.051Z,977.56
2017-10-10T09:35:45.378Z,977.55
2017-10-10T09:36:55.704Z,977.48
2017-10-10T09:38:05.701Z,977.47
2017-10-10T09:39:15.037Z,977.4
2017-10-10T09:40:24.698Z,977.39
2017-10-10T09:41:35.025Z,977.42
2017-10-10T09:42:45.356Z,977.39
2017-10-10T09:43:57.693Z,977.37
2017-10-10T09:45:08.028Z,977.39
2017-10-10T09:46:18.356Z,977.36
2017-10-10T09:47:28.685Z,977.35
2017-10-10T09:48:39.011Z,977.35
2017-10-10T09:49:49.337Z,977.34
2017-10-10T09:50:59.665Z,977.32
2017-10-10T09:52:09.661Z,977.34
2017-10-10T09:53:19.995Z,977.3
2017-10-10T09:54:29.993Z,977.29
2017-10-10T09:55:39.992Z,977.27
2017-10-10T09:56:49.984Z,977.29
2017-10-10T09:58:00.315Z,977.28
2017-10-10T09:59:10.668Z,977.26
2017-10-10T10:00:21.039Z,977.29
2017-10-10T10:01:31.035Z,977.32
2017-10-10T10:02:41.030Z,977.29
2017-10-10T10:03:51.371Z,977.29
2017-10-10T10:05:01.712Z,977.3
2017-10-10T10:06:12.044Z,977.26
2017-10-10T10:07:22.374Z,977.2
2017-10-10T10:08:32.705Z,977.22
2017-10-10T10:09:43.038Z,977.18
2017-10-10T10:10:52.699Z,977.18
2017-10-10T10:12:03.025Z,977.18
2017-10-10T10:13:12.794Z,977.15
2017-10-10T10:14:23.130Z,977.12
2017-10-10T10:15:33.122Z,977.07
2017-10-10T10:16:43.117Z,977.11
2017-10-10T10:17:53.452Z,977.07
2017-10-10T10:19:03.135Z,977.1
2017-10-10T10:20:12.801Z,977.06
2017-10-10T10:21:22.464Z,977.03
2017-10-10T10:22:32.460Z,977.02
2017-10-10T10:23:42.797Z,977
2017-10-10T10:24:52.791Z,976.96
2017-10-10T10:26:03.125Z,976.99
2017-10-10T10:27:13.127Z,976.98
2017-10-10T10:28:23.122Z,976.95
2017-10-10T10:29:32.785Z,976.95
2017-10-10T10:30:42.447Z,976.94
2017-10-10T10:31:52.784Z,976.96
2017-10-10T10:33:02.783Z,976.96
2017-10-10T10:34:12.787Z,976.96
2017-10-10T10:35:22.788Z,976.89
2017-10-10T10:36:33.116Z,976.92
2017-10-10T10:37:43.446Z,976.91
2017-10-10T10:38:53.777Z,976.88
2017-10-10T10:40:03.770Z,976.86
2017-10-10T10:41:13.776Z,976.87
2017-10-10T10:42:24.103Z,976.82
2017-10-10T10:43:33.769Z,976.8
2017-10-10T10:44:44.109Z,976.75
2017-10-10T10:45:54.110Z,976.73
2017-10-10T10:47:03.773Z,976.74
2017-10-10T10:48:13.772Z,976.73
2017-10-10T10:49:23.431Z,976.68
2017-10-10T10:50:33.098Z,976.65
2017-10-10T10:51:43.098Z,976.62
2017-10-10T10:52:53.094Z,976.6
2017-10-10T10:54:03.426Z,976.57
2017-10-10T10:55:13.453Z,976.56
2017-10-10T10:56:23.783Z,976.56
2017-10-10T10:57:33.453Z,976.52
2017-10-10T10:58:43.462Z,976.56
2017-10-10T10:59:53.125Z,976.51
2017-10-10T11:01:03.119Z,976.5
2017-10-10T11:02:12.778Z,976.52
2017-10-10T11:03:23.119Z,976.52
2017-10-10T11:04:33.123Z,976.47
2017-10-10T11:05:43.451Z,976.45
2017-10-10T11:06:53.779Z,976.42
2017-10-10T11:08:04.116Z,976.37
2017-10-10T11:09:14.446Z,976.35
2017-10-10T11:10:23.772Z,976.34
2017-10-10T11:11:34.109Z,976.28
2017-10-10T11:12:44.108Z,976.31
2017-10-10T11:13:53.774Z,976.24
2017-10-10T11:15:04.125Z,976.22
2017-10-10T11:16:14.453Z,976.2
2017-10-10T11:17:24.113Z,976.19
2017-10-10T11:18:34.120Z,976.23
2017-10-10T11:19:43.779Z,976.22
2017-10-10T11:20:54.113Z,976.26
2017-10-10T11:22:04.118Z,976.25
2017-10-10T11:23:14.457Z,976.2
2017-10-10T11:24:24.458Z,976.18
2017-10-10T11:25:34.805Z,976.17
2017-10-10T11:26:45.137Z,976.16
2017-10-10T11:27:55.465Z,976.13
2017-10-10T11:29:05.131Z,976.11
2017-10-10T11:30:14.788Z,976.12
2017-10-10T11:31:25.120Z,976.15
2017-10-10T11:32:35.457Z,976.09
2017-10-10T11:33:45.787Z,976.09
2017-10-10T11:34:56.114Z,976.06
2017-10-10T11:36:06.470Z,976.08
2017-10-10T11:37:16.467Z,976.07
2017-10-10T11:38:26.128Z,976.05
2017-10-10T11:39:35.791Z,976.02
2017-10-10T11:40:46.129Z,976
2017-10-10T11:41:56.461Z,976.04
2017-10-10T11:43:06.455Z,975.96
2017-10-10T11:44:16.457Z,975.94
2017-10-10T11:45:26.124Z,975.9
2017-10-10T11:46:36.122Z,975.89
2017-10-10T11:47:46.120Z,975.84
2017-10-10T11:48:56.123Z,975.83
2017-10-10T11:50:06.451Z,975.78
2017-10-10T11:51:16.792Z,975.74
2017-10-10T11:52:26.798Z,975.72
2017-10-10T11:53:36.458Z,975.72
2017-10-10T11:54:46.120Z,975.7
2017-10-10T11:55:56.448Z,975.68
2017-10-10T11:57:06.777Z,975.7
2017-10-10T11:58:17.113Z,975.69
2017-10-10T11:59:27.147Z,975.67
2017-10-10T12:00:37.474Z,975.64
2017-10-10T12:01:46.801Z,975.62
2017-10-10T12:02:57.148Z,975.59
2017-10-10T12:04:07.143Z,975.61
2017-10-10T12:05:17.139Z,975.64
2017-10-10T12:06:26.800Z,975.58
2017-10-10T12:07:36.818Z,975.59
2017-10-10T12:08:47.158Z,975.58
2017-10-10T12:09:57.281Z,975.6
2017-10-10T12:11:07.258Z,975.6
2017-10-10T12:12:17.256Z,975.59
2017-10-10T12:13:27.590Z,975.61
2017-10-10T12:14:37.587Z,975.57
2017-10-10T12:15:47.591Z,975.56
2017-10-10T12:16:57.587Z,975.56
2017-10-10T12:18:07.609Z,975.52
2017-10-10T12:19:17.606Z,975.46
2017-10-10T12:20:27.933Z,975.44
2017-10-10T12:21:37.603Z,975.42
2017-10-10T12:22:47.603Z,975.37
2017-10-10T12:23:57.608Z,975.44
2017-10-10T12:25:07.605Z,975.38
2017-10-10T12:26:17.600Z,975.39
2017-10-10T12:27:28.337Z,975.43
2017-10-10T12:28:38.671Z,975.57
2017-10-10T12:29:48.671Z,975.49
2017-10-10T12:30:58.337Z,975.4
2017-10-10T12:32:08.005Z,975.36
2017-10-10T12:33:17.680Z,975.25
2017-10-10T12:34:27.689Z,975.25
2017-10-10T12:35:37.363Z,975.25
2017-10-10T12:36:47.693Z,975.21
2017-10-10T12:37:57.692Z,975.3
2017-10-10T12:39:08.030Z,975.33
2017-10-10T12:40:18.371Z,975.34
2017-10-10T12:41:28.735Z,975.27
2017-10-10T12:42:38.376Z,975.35
2017-10-10T12:43:48.710Z,975.12
2017-10-10T12:44:59.048Z,975.01
2017-10-10T12:46:09.052Z,975.04
2017-10-10T12:47:19.386Z,975.03
2017-10-10T12:48:29.056Z,975
2017-10-10T12:49:39.400Z,975.05
2017-10-10T12:50:49.458Z,975.01
2017-10-10T12:51:59.468Z,974.96
2017-10-10T12:53:09.470Z,974.94
2017-10-10T12:54:19.804Z,974.92
2017-10-10T12:55:29.468Z,974.94
2017-10-10T12:56:39.146Z,974.96
2017-10-10T12:57:49.518Z,974.95
2017-10-10T12:58:59.552Z,974.89
2017-10-10T13:00:09.905Z,974.88
2017-10-10T13:01:20.241Z,974.82
2017-10-10T13:02:30.253Z,974.79
2017-10-10T13:03:40.253Z,974.76
2017-10-10T13:04:50.591Z,974.77
2017-10-10T13:06:00.597Z,974.76
2017-10-10T13:07:10.260Z,974.74
2017-10-10T13:08:20.600Z,974.67
2017-10-10T13:09:30.623Z,974.62
2017-10-10T13:10:40.637Z,974.56
2017-10-10T13:11:50.969Z,974.57
2017-10-10T13:13:00.296Z,974.56
2017-10-10T13:14:10.294Z,974.56
2017-10-10T13:15:19.958Z,974.49
2017-10-10T13:16:29.971Z,974.48
2017-10-10T13:17:40.310Z,974.49
2017-10-10T13:18:50.644Z,974.43
2017-10-10T13:20:00.994Z,974.41
2017-10-10T13:21:11.340Z,974.43
2017-10-10T13:22:21.336Z,974.37
2017-10-10T13:23:30.998Z,974.36
2017-10-10T13:24:40.659Z,974.35
2017-10-10T13:25:50.653Z,974.28
2017-10-10T13:27:00.983Z,974.28
2017-10-10T13:28:10.978Z,974.32
2017-10-10T13:29:20.977Z,974.26
2017-10-10T13:30:31.308Z,974.3
2017-10-10T13:31:41.646Z,974.25
2017-10-10T13:32:50.977Z,974.26
2017-10-10T13:34:01.320Z,974.28
2017-10-10T13:35:11.321Z,974.22
2017-10-10T13:36:21.656Z,974.27
2017-10-10T13:37:31.651Z,974.24
2017-10-10T13:38:41.978Z,974.24
2017-10-10T13:39:52.312Z,974.25
2017-10-10T13:41:01.972Z,974.19
2017-10-10T13:42:11.307Z,974.14
2017-10-10T13:43:23.738Z,974.12
2017-10-10T13:44:33.808Z,974.12
2017-10-10T13:45:44.136Z,974.07
2017-10-10T13:46:53.799Z,974.06
2017-10-10T13:48:03.462Z,974.09
2017-10-10T13:49:13.132Z,974.05
2017-10-10T13:50:22.800Z,974.07
2017-10-10T13:51:33.157Z,974.06
2017-10-10T13:52:43.157Z,974.02
2017-10-10T13:53:52.864Z,974
2017-10-10T13:55:02.857Z,973.94
2017-10-10T13:56:12.517Z,973.94
2017-10-10T13:57:22.849Z,973.9
2017-10-10T13:58:32.848Z,973.94
2017-10-10T13:59:42.842Z,973.89
2017-10-10T14:00:53.172Z,973.85
2017-10-10T14:02:03.512Z,973.87
2017-10-10T14:03:13.843Z,973.84
2017-10-10T14:04:24.175Z,973.79
2017-10-10T14:05:34.508Z,973.8
2017-10-10T14:06:44.502Z,973.76
2017-10-10T14:07:54.833Z,973.76
2017-10-10T14:09:04.833Z,973.74
2017-10-10T14:10:14.831Z,973.71
2017-10-10T14:11:24.494Z,973.68
2017-10-10T14:12:34.487Z,973.68
2017-10-10T14:13:44.490Z,973.7
2017-10-10T14:14:54.819Z,973.68
2017-10-10T14:16:04.821Z,973.67
2017-10-10T14:17:15.157Z,973.64
2017-10-10T14:18:24.487Z,973.62
2017-10-10T14:19:34.813Z,973.57
2017-10-10T14:20:44.807Z,973.62
2017-10-10T14:21:55.141Z,973.57
2017-10-10T14:23:05.148Z,973.56
2017-10-10T14:24:15.509Z,973.55
2017-10-10T14:25:25.841Z,973.58
2017-10-10T14:26:36.193Z,973.52
2017-10-10T14:27:46.190Z,973.55
2017-10-10T14:28:55.851Z,973.48
2017-10-10T14:30:06.191Z,973.52
2017-10-10T14:31:16.192Z,973.46
2017-10-10T14:32:26.191Z,973.47
2017-10-10T14:33:36.183Z,973.45
2017-10-10T14:34:46.515Z,973.45
2017-10-10T14:35:56.510Z,973.44
2017-10-10T14:37:05.834Z,973.41
2017-10-10T14:38:16.163Z,973.4